AUA71RD LOWW-LQSA
Flight info
| Callsign | AUA71RD |
|---|---|
| Flight time | 0h 47m |
| Altitude | 33000 |
| Route | STEIN3A/11 STEIN DCT NOHAT DCT KOPRY DCT LURID DCT BOSNA |
| Aircraft | A320/M-SDE3FGHIRWY/LB1 |
Departure
| Time | 2026-05-06 20:30 |
|---|---|
| Airport | Vienna International Airport (LOWW) |
Arrival
| Time | 2026-05-06 21:18 |
|---|---|
| Airport | Sarajevo International Airport (LQSA) |
| Time | Latitude | Longitude | Altitude | Speed | Heading |
|---|---|---|---|---|---|
| 2026-05-06 19:52 | 48.11932 | 16.56657 | 621 ft | 0 kts | 206° |
| 2026-05-06 20:12 | 48.11942 | 16.56664 | 628 ft | 3 kts | 215° |
| 2026-05-06 20:13 | 48.11954 | 16.56683 | 626 ft | 3 kts | 226° |
| 2026-05-06 20:13 | 48.11968 | 16.56698 | 626 ft | 2 kts | 208° |
| 2026-05-06 20:13 | 48.11983 | 16.56711 | 622 ft | 3 kts | 191° |
| 2026-05-06 20:13 | 48.11995 | 16.56713 | 620 ft | 0 kts | 167° |
| 2026-05-06 20:14 | 48.11994 | 16.56713 | 620 ft | 0 kts | 167° |
| 2026-05-06 20:14 | 48.11992 | 16.56723 | 622 ft | 2 kts | 115° |
| 2026-05-06 20:14 | 48.11991 | 16.56725 | 621 ft | 0 kts | 116° |
| 2026-05-06 20:16 | 48.11987 | 16.56738 | 616 ft | 6 kts | 116° |
| 2026-05-06 20:17 | 48.11956 | 16.56830 | 618 ft | 12 kts | 116° |
| 2026-05-06 20:17 | 48.11912 | 16.56968 | 617 ft | 17 kts | 116° |
| 2026-05-06 20:17 | 48.11859 | 16.57130 | 617 ft | 15 kts | 111° |
| 2026-05-06 20:17 | 48.11832 | 16.57283 | 622 ft | 17 kts | 115° |
| 2026-05-06 20:18 | 48.11754 | 16.57368 | 614 ft | 15 kts | 164° |
| 2026-05-06 20:18 | 48.11639 | 16.57417 | 619 ft | 19 kts | 164° |
| 2026-05-06 20:18 | 48.11510 | 16.57461 | 614 ft | 19 kts | 183° |
| 2026-05-06 20:18 | 48.11381 | 16.57381 | 623 ft | 22 kts | 206° |
| 2026-05-06 20:19 | 48.11253 | 16.57286 | 610 ft | 15 kts | 214° |
| 2026-05-06 20:19 | 48.11259 | 16.57124 | 616 ft | 21 kts | 296° |
| 2026-05-06 20:19 | 48.11339 | 16.56873 | 614 ft | 30 kts | 296° |
| 2026-05-06 20:19 | 48.11431 | 16.56587 | 617 ft | 31 kts | 296° |
| 2026-05-06 20:20 | 48.11510 | 16.56350 | 610 ft | 22 kts | 296° |
| 2026-05-06 20:20 | 48.11576 | 16.56148 | 618 ft | 21 kts | 296° |
| 2026-05-06 20:20 | 48.11640 | 16.55952 | 618 ft | 22 kts | 296° |
| 2026-05-06 20:20 | 48.11709 | 16.55740 | 614 ft | 24 kts | 296° |
| 2026-05-06 20:21 | 48.11784 | 16.55512 | 615 ft | 25 kts | 296° |
| 2026-05-06 20:21 | 48.11862 | 16.55269 | 612 ft | 27 kts | 296° |
| 2026-05-06 20:21 | 48.11949 | 16.55001 | 616 ft | 30 kts | 296° |
| 2026-05-06 20:21 | 48.12022 | 16.54781 | 610 ft | 21 kts | 296° |
| 2026-05-06 20:22 | 48.12089 | 16.54574 | 614 ft | 23 kts | 295° |
| 2026-05-06 20:22 | 48.12161 | 16.54357 | 617 ft | 24 kts | 296° |
| 2026-05-06 20:22 | 48.12223 | 16.54157 | 616 ft | 15 kts | 288° |
| 2026-05-06 20:22 | 48.12210 | 16.54030 | 613 ft | 7 kts | 237° |
| 2026-05-06 20:23 | 48.12201 | 16.54015 | 620 ft | 0 kts | 225° |
| 2026-05-06 20:25 | 48.12194 | 16.54005 | 620 ft | 5 kts | 221° |
| 2026-05-06 20:25 | 48.12140 | 16.53979 | 610 ft | 10 kts | 182° |
| 2026-05-06 20:26 | 48.12086 | 16.53974 | 610 ft | 7 kts | 172° |
| 2026-05-06 20:26 | 48.12055 | 16.54032 | 618 ft | 1 kts | 117° |
| 2026-05-06 20:29 | 48.12053 | 16.54038 | 617 ft | 4 kts | 117° |
| 2026-05-06 20:30 | 48.11984 | 16.54250 | 619 ft | 55 kts | 116° |
| 2026-05-06 20:30 | 48.11278 | 16.56441 | 965 ft | 147 kts | 120° |
| 2026-05-06 20:30 | 48.10821 | 16.57846 | 1693 ft | 152 kts | 123° |
| 2026-05-06 20:31 | 48.10347 | 16.59283 | 2417 ft | 155 kts | 127° |
| 2026-05-06 20:31 | 48.09858 | 16.60747 | 3096 ft | 159 kts | 127° |
| 2026-05-06 20:31 | 48.09364 | 16.62229 | 3761 ft | 160 kts | 125° |
| 2026-05-06 20:31 | 48.08843 | 16.63784 | 4191 ft | 177 kts | 125° |
| 2026-05-06 20:32 | 48.08249 | 16.65536 | 4547 ft | 201 kts | 124° |
| 2026-05-06 20:32 | 48.07553 | 16.67477 | 4883 ft | 222 kts | 131° |
| 2026-05-06 20:32 | 48.06508 | 16.69208 | 5013 ft | 223 kts | 148° |
| 2026-05-06 20:32 | 48.05190 | 16.70345 | 5026 ft | 216 kts | 166° |
| 2026-05-06 20:33 | 48.03732 | 16.70799 | 5401 ft | 215 kts | 183° |
| 2026-05-06 20:33 | 48.02260 | 16.70621 | 6364 ft | 214 kts | 193° |
| 2026-05-06 20:33 | 48.00710 | 16.70232 | 6863 ft | 238 kts | 193° |
| 2026-05-06 20:33 | 47.99001 | 16.69812 | 7459 ft | 256 kts | 192° |
| 2026-05-06 20:34 | 47.97201 | 16.69378 | 7899 ft | 266 kts | 192° |
| 2026-05-06 20:34 | 47.95375 | 16.68944 | 7995 ft | 266 kts | 192° |
| 2026-05-06 20:34 | 47.93548 | 16.68517 | 8026 ft | 266 kts | 192° |
| 2026-05-06 20:34 | 47.91696 | 16.68079 | 8669 ft | 271 kts | 192° |
| 2026-05-06 20:35 | 47.89837 | 16.67637 | 9777 ft | 271 kts | 192° |
| 2026-05-06 20:35 | 47.87920 | 16.67174 | 10326 ft | 291 kts | 192° |
| 2026-05-06 20:35 | 47.85841 | 16.66665 | 10660 ft | 315 kts | 192° |
| 2026-05-06 20:35 | 47.83622 | 16.66124 | 11222 ft | 328 kts | 192° |
| 2026-05-06 20:36 | 47.81349 | 16.65579 | 12028 ft | 333 kts | 191° |
| 2026-05-06 20:36 | 47.79052 | 16.65040 | 12900 ft | 336 kts | 191° |
| 2026-05-06 20:36 | 47.76726 | 16.64495 | 13716 ft | 340 kts | 191° |
| 2026-05-06 20:36 | 47.74375 | 16.63936 | 14437 ft | 344 kts | 191° |
| 2026-05-06 20:37 | 47.71997 | 16.63420 | 15175 ft | 348 kts | 189° |
| 2026-05-06 20:37 | 47.69572 | 16.63047 | 15903 ft | 352 kts | 187° |
| 2026-05-06 20:37 | 47.67111 | 16.62762 | 16617 ft | 357 kts | 186° |
| 2026-05-06 20:37 | 47.64618 | 16.62507 | 17302 ft | 361 kts | 186° |
| 2026-05-06 20:38 | 47.62097 | 16.62253 | 17994 ft | 366 kts | 186° |
| 2026-05-06 20:38 | 47.59542 | 16.61982 | 18609 ft | 370 kts | 186° |
| 2026-05-06 20:38 | 47.56963 | 16.61691 | 19226 ft | 373 kts | 186° |
| 2026-05-06 20:38 | 47.54360 | 16.61382 | 19850 ft | 377 kts | 186° |
| 2026-05-06 20:39 | 47.51732 | 16.61065 | 20484 ft | 381 kts | 186° |
| 2026-05-06 20:39 | 47.49084 | 16.60742 | 21094 ft | 384 kts | 187° |
| 2026-05-06 20:39 | 47.46407 | 16.60413 | 21698 ft | 387 kts | 187° |
| 2026-05-06 20:39 | 47.43708 | 16.60086 | 22297 ft | 390 kts | 186° |
| 2026-05-06 20:40 | 47.40974 | 16.60045 | 22863 ft | 395 kts | 180° |
| 2026-05-06 20:40 | 47.38220 | 16.60171 | 23424 ft | 398 kts | 180° |
| 2026-05-06 20:40 | 47.35439 | 16.60297 | 23895 ft | 401 kts | 181° |
| 2026-05-06 20:40 | 47.32643 | 16.60422 | 24360 ft | 403 kts | 181° |
| 2026-05-06 20:41 | 47.29832 | 16.60545 | 24808 ft | 405 kts | 181° |
| 2026-05-06 20:41 | 47.27007 | 16.60668 | 25251 ft | 407 kts | 181° |
| 2026-05-06 20:41 | 47.24164 | 16.60787 | 25680 ft | 410 kts | 181° |
| 2026-05-06 20:41 | 47.21305 | 16.60906 | 26098 ft | 412 kts | 181° |
| 2026-05-06 20:42 | 47.18428 | 16.61026 | 26510 ft | 415 kts | 181° |
| 2026-05-06 20:42 | 47.15515 | 16.61149 | 26676 ft | 423 kts | 182° |
| 2026-05-06 20:42 | 47.12545 | 16.61275 | 26819 ft | 431 kts | 181° |
| 2026-05-06 20:42 | 47.09525 | 16.61407 | 26944 ft | 438 kts | 181° |
| 2026-05-06 20:43 | 47.06461 | 16.61544 | 27078 ft | 443 kts | 181° |
| 2026-05-06 20:43 | 47.03360 | 16.61682 | 27212 ft | 448 kts | 181° |
| 2026-05-06 20:43 | 47.00234 | 16.61816 | 27333 ft | 451 kts | 182° |
| 2026-05-06 20:43 | 46.97086 | 16.61954 | 27471 ft | 454 kts | 182° |
| 2026-05-06 20:44 | 46.93931 | 16.62097 | 27636 ft | 455 kts | 182° |
| 2026-05-06 20:44 | 46.90765 | 16.62235 | 27823 ft | 455 kts | 182° |
| 2026-05-06 20:44 | 46.87602 | 16.62367 | 28037 ft | 455 kts | 182° |
| 2026-05-06 20:44 | 46.84435 | 16.62505 | 28260 ft | 455 kts | 181° |
| 2026-05-06 20:45 | 46.81279 | 16.63079 | 28484 ft | 460 kts | 172° |
| 2026-05-06 20:45 | 46.78192 | 16.64392 | 28713 ft | 465 kts | 163° |
| 2026-05-06 20:45 | 46.75187 | 16.66177 | 28931 ft | 466 kts | 162° |
| 2026-05-06 20:45 | 46.72188 | 16.67963 | 29166 ft | 466 kts | 162° |
| 2026-05-06 20:46 | 46.69178 | 16.69742 | 29398 ft | 466 kts | 162° |
| 2026-05-06 20:46 | 46.66172 | 16.71517 | 29645 ft | 466 kts | 162° |
| 2026-05-06 20:46 | 46.63169 | 16.73289 | 29892 ft | 466 kts | 162° |
| 2026-05-06 20:46 | 46.60163 | 16.75064 | 30116 ft | 466 kts | 162° |
| 2026-05-06 20:47 | 46.57172 | 16.76834 | 30387 ft | 464 kts | 162° |
| 2026-05-06 20:47 | 46.54186 | 16.78601 | 30659 ft | 463 kts | 162° |
| 2026-05-06 20:47 | 46.51202 | 16.80360 | 30860 ft | 462 kts | 162° |
| 2026-05-06 20:48 | 46.45254 | 16.83861 | 30919 ft | 461 kts | 162° |
| 2026-05-06 20:48 | 46.39314 | 16.87345 | 30922 ft | 460 kts | 162° |
| 2026-05-06 20:49 | 46.33375 | 16.90822 | 30922 ft | 461 kts | 162° |
| 2026-05-06 20:49 | 46.27428 | 16.94289 | 30925 ft | 461 kts | 162° |
| 2026-05-06 20:50 | 46.21409 | 16.97335 | 30928 ft | 457 kts | 169° |
| 2026-05-06 20:50 | 46.15248 | 16.99805 | 30925 ft | 457 kts | 169° |
| 2026-05-06 20:51 | 46.09127 | 17.02265 | 30928 ft | 456 kts | 169° |
| 2026-05-06 20:51 | 46.03012 | 17.04722 | 30924 ft | 457 kts | 169° |
| 2026-05-06 20:52 | 45.96888 | 17.07171 | 30934 ft | 457 kts | 169° |
| 2026-05-06 20:52 | 45.91797 | 17.09199 | 30924 ft | 457 kts | 169° |
| 2026-05-06 20:53 | 45.85666 | 17.11630 | 30925 ft | 457 kts | 169° |
| 2026-05-06 20:53 | 45.79543 | 17.14062 | 30919 ft | 457 kts | 169° |
| 2026-05-06 20:54 | 45.73415 | 17.16495 | 30932 ft | 457 kts | 169° |
| 2026-05-06 20:54 | 45.67282 | 17.18928 | 30928 ft | 457 kts | 169° |
| 2026-05-06 20:55 | 45.61154 | 17.21343 | 30933 ft | 457 kts | 169° |
| 2026-05-06 20:55 | 45.55079 | 17.23726 | 30941 ft | 440 kts | 169° |
| 2026-05-06 20:56 | 45.49264 | 17.26024 | 30942 ft | 431 kts | 170° |
| 2026-05-06 20:56 | 45.43493 | 17.28282 | 30620 ft | 429 kts | 170° |
| 2026-05-06 20:56 | 45.40612 | 17.29408 | 30366 ft | 429 kts | 170° |
| 2026-05-06 20:57 | 45.37736 | 17.30529 | 29950 ft | 427 kts | 170° |
| 2026-05-06 20:57 | 45.34881 | 17.31641 | 29230 ft | 424 kts | 170° |
| 2026-05-06 20:57 | 45.32054 | 17.32744 | 28610 ft | 419 kts | 170° |
| 2026-05-06 20:57 | 45.29253 | 17.33834 | 27987 ft | 415 kts | 170° |
| 2026-05-06 20:58 | 45.26481 | 17.34913 | 27362 ft | 412 kts | 169° |
| 2026-05-06 20:58 | 45.23730 | 17.35984 | 26772 ft | 408 kts | 169° |
| 2026-05-06 20:58 | 45.20998 | 17.37043 | 26170 ft | 405 kts | 169° |
| 2026-05-06 20:58 | 45.18288 | 17.38091 | 25566 ft | 402 kts | 169° |
| 2026-05-06 20:59 | 45.15597 | 17.39132 | 24982 ft | 400 kts | 169° |
| 2026-05-06 20:59 | 45.12917 | 17.40177 | 24399 ft | 399 kts | 168° |
| 2026-05-06 20:59 | 45.10268 | 17.41327 | 23827 ft | 398 kts | 166° |
| 2026-05-06 20:59 | 45.07642 | 17.42573 | 23207 ft | 397 kts | 165° |
| 2026-05-06 21:00 | 45.05052 | 17.43859 | 22824 ft | 390 kts | 164° |
| 2026-05-06 21:00 | 45.02545 | 17.45119 | 22722 ft | 375 kts | 165° |
| 2026-05-06 21:00 | 45.00112 | 17.46326 | 22648 ft | 371 kts | 165° |
| 2026-05-06 21:00 | 44.97675 | 17.47505 | 22550 ft | 371 kts | 165° |
| 2026-05-06 21:01 | 44.95229 | 17.48671 | 22460 ft | 371 kts | 165° |
| 2026-05-06 21:01 | 44.92786 | 17.49825 | 22375 ft | 370 kts | 166° |
| 2026-05-06 21:01 | 44.90343 | 17.50974 | 22288 ft | 370 kts | 166° |
| 2026-05-06 21:01 | 44.87906 | 17.52120 | 22199 ft | 369 kts | 165° |
| 2026-05-06 21:02 | 44.85475 | 17.53265 | 22107 ft | 368 kts | 165° |
| 2026-05-06 21:02 | 44.83046 | 17.54414 | 22024 ft | 368 kts | 165° |
| 2026-05-06 21:02 | 44.80623 | 17.55559 | 21935 ft | 367 kts | 166° |
| 2026-05-06 21:02 | 44.78206 | 17.56698 | 21848 ft | 366 kts | 166° |
| 2026-05-06 21:03 | 44.75792 | 17.57836 | 21762 ft | 366 kts | 165° |
| 2026-05-06 21:03 | 44.73382 | 17.58971 | 21675 ft | 365 kts | 166° |
| 2026-05-06 21:03 | 44.70976 | 17.60103 | 21370 ft | 364 kts | 166° |
| 2026-05-06 21:03 | 44.68585 | 17.61233 | 20913 ft | 361 kts | 165° |
| 2026-05-06 21:04 | 44.66216 | 17.62353 | 20452 ft | 357 kts | 165° |
| 2026-05-06 21:04 | 44.63865 | 17.63459 | 19980 ft | 355 kts | 165° |
| 2026-05-06 21:04 | 44.61525 | 17.64557 | 19507 ft | 354 kts | 165° |
| 2026-05-06 21:04 | 44.59198 | 17.65645 | 19015 ft | 352 kts | 165° |
| 2026-05-06 21:05 | 44.56876 | 17.66731 | 18531 ft | 351 kts | 165° |
| 2026-05-06 21:05 | 44.54571 | 17.67808 | 18001 ft | 348 kts | 165° |
| 2026-05-06 21:05 | 44.52282 | 17.68879 | 17504 ft | 346 kts | 165° |
| 2026-05-06 21:05 | 44.49975 | 17.69958 | 17008 ft | 344 kts | 165° |
| 2026-05-06 21:06 | 44.47711 | 17.71013 | 16519 ft | 342 kts | 164° |
| 2026-05-06 21:06 | 44.45462 | 17.72061 | 16038 ft | 340 kts | 164° |
| 2026-05-06 21:06 | 44.43221 | 17.73106 | 15555 ft | 338 kts | 164° |
| 2026-05-06 21:06 | 44.40994 | 17.74141 | 15060 ft | 336 kts | 164° |
| 2026-05-06 21:07 | 44.38779 | 17.75170 | 14588 ft | 334 kts | 164° |
| 2026-05-06 21:07 | 44.36600 | 17.76304 | 14087 ft | 335 kts | 157° |
| 2026-05-06 21:07 | 44.34520 | 17.77795 | 13572 ft | 336 kts | 154° |
| 2026-05-06 21:07 | 44.32445 | 17.79296 | 13021 ft | 335 kts | 155° |
| 2026-05-06 21:08 | 44.30381 | 17.80787 | 12521 ft | 333 kts | 155° |
| 2026-05-06 21:08 | 44.28324 | 17.82270 | 11988 ft | 332 kts | 155° |
| 2026-05-06 21:08 | 44.26278 | 17.83741 | 11472 ft | 330 kts | 155° |
| 2026-05-06 21:08 | 44.24240 | 17.85203 | 10939 ft | 329 kts | 155° |
| 2026-05-06 21:09 | 44.22207 | 17.86661 | 10462 ft | 327 kts | 155° |
| 2026-05-06 21:09 | 44.20231 | 17.88082 | 10330 ft | 313 kts | 155° |
| 2026-05-06 21:09 | 44.18338 | 17.89445 | 10213 ft | 300 kts | 155° |
| 2026-05-06 21:09 | 44.16516 | 17.90756 | 10012 ft | 291 kts | 155° |
| 2026-05-06 21:10 | 44.14734 | 17.92033 | 9849 ft | 286 kts | 155° |
| 2026-05-06 21:10 | 44.12980 | 17.93287 | 9687 ft | 280 kts | 156° |
| 2026-05-06 21:10 | 44.11263 | 17.94514 | 9296 ft | 276 kts | 156° |
| 2026-05-06 21:10 | 44.09557 | 17.95733 | 8878 ft | 275 kts | 156° |
| 2026-05-06 21:11 | 44.08040 | 17.96818 | 8558 ft | 273 kts | 156° |
| 2026-05-06 21:11 | 44.06353 | 17.98019 | 8182 ft | 271 kts | 156° |
| 2026-05-06 21:11 | 44.04683 | 17.99210 | 7823 ft | 269 kts | 156° |
| 2026-05-06 21:11 | 44.03020 | 18.00398 | 7445 ft | 267 kts | 156° |
| 2026-05-06 21:12 | 44.01340 | 18.01447 | 7068 ft | 263 kts | 165° |
| 2026-05-06 21:12 | 43.99621 | 18.02245 | 6792 ft | 258 kts | 165° |
| 2026-05-06 21:12 | 43.97934 | 18.03040 | 6564 ft | 252 kts | 165° |
| 2026-05-06 21:12 | 43.96295 | 18.03816 | 6267 ft | 247 kts | 164° |
| 2026-05-06 21:13 | 43.94684 | 18.04578 | 5963 ft | 242 kts | 162° |
| 2026-05-06 21:13 | 43.93208 | 18.05646 | 5691 ft | 239 kts | 145° |
| 2026-05-06 21:13 | 43.92092 | 18.07340 | 5426 ft | 238 kts | 124° |
| 2026-05-06 21:13 | 43.91327 | 18.09361 | 5170 ft | 234 kts | 120° |
| 2026-05-06 21:14 | 43.90594 | 18.11348 | 4920 ft | 226 kts | 120° |
| 2026-05-06 21:14 | 43.89899 | 18.13226 | 4662 ft | 211 kts | 120° |
| 2026-05-06 21:14 | 43.89257 | 18.14960 | 4479 ft | 193 kts | 120° |
| 2026-05-06 21:14 | 43.88665 | 18.16559 | 4240 ft | 181 kts | 121° |
| 2026-05-06 21:15 | 43.88107 | 18.18056 | 3965 ft | 168 kts | 121° |
| 2026-05-06 21:15 | 43.87592 | 18.19436 | 3764 ft | 153 kts | 120° |
| 2026-05-06 21:15 | 43.87110 | 18.20719 | 3539 ft | 147 kts | 118° |
| 2026-05-06 21:15 | 43.86640 | 18.21965 | 3323 ft | 145 kts | 117° |
| 2026-05-06 21:16 | 43.86173 | 18.23205 | 3126 ft | 144 kts | 117° |
| 2026-05-06 21:16 | 43.85712 | 18.24438 | 2936 ft | 144 kts | 116° |
| 2026-05-06 21:16 | 43.85269 | 18.25672 | 2764 ft | 143 kts | 116° |
| 2026-05-06 21:16 | 43.84815 | 18.26891 | 2559 ft | 142 kts | 118° |
| 2026-05-06 21:17 | 43.84362 | 18.28096 | 2368 ft | 141 kts | 118° |
| 2026-05-06 21:17 | 43.83898 | 18.29292 | 2151 ft | 141 kts | 118° |
| 2026-05-06 21:17 | 43.83450 | 18.30502 | 1928 ft | 141 kts | 117° |
| 2026-05-06 21:17 | 43.83000 | 18.31714 | 1713 ft | 141 kts | 117° |
| 2026-05-06 21:18 | 43.82583 | 18.32816 | 1689 ft | 104 kts | 117° |
| 2026-05-06 21:18 | 43.82331 | 18.33490 | 1705 ft | 53 kts | 117° |
| 2026-05-06 21:18 | 43.82173 | 18.33912 | 1709 ft | 46 kts | 117° |
| 2026-05-06 21:18 | 43.82040 | 18.34260 | 1711 ft | 26 kts | 117° |
| 2026-05-06 21:19 | 43.81965 | 18.34464 | 1712 ft | 18 kts | 117° |
| 2026-05-06 21:19 | 43.81948 | 18.34571 | 1716 ft | 9 kts | 69° |
| 2026-05-06 21:19 | 43.81991 | 18.34614 | 1715 ft | 8 kts | 25° |
| 2026-05-06 21:19 | 43.82043 | 18.34623 | 1715 ft | 8 kts | 352° |
| 2026-05-06 21:20 | 43.82092 | 18.34589 | 1714 ft | 8 kts | 319° |
| 2026-05-06 21:20 | 43.82126 | 18.34511 | 1714 ft | 11 kts | 298° |
| 2026-05-06 21:20 | 43.82170 | 18.34395 | 1712 ft | 17 kts | 297° |
| 2026-05-06 21:20 | 43.82232 | 18.34229 | 1710 ft | 21 kts | 297° |
| 2026-05-06 21:21 | 43.82304 | 18.34036 | 1709 ft | 24 kts | 297° |
| 2026-05-06 21:21 | 43.82380 | 18.33834 | 1707 ft | 17 kts | 297° |
| 2026-05-06 21:21 | 43.82422 | 18.33721 | 1709 ft | 8 kts | 297° |
| 2026-05-06 21:21 | 43.82453 | 18.33655 | 1707 ft | 8 kts | 327° |
| 2026-05-06 21:22 | 43.82498 | 18.33675 | 1706 ft | 5 kts | 27° |
| 2026-05-06 21:22 | 43.82516 | 18.33688 | 1705 ft | 1 kts | 27° |
| 2026-05-06 21:22 | 43.82520 | 18.33691 | 1705 ft | 0 kts | 27° |